Time;durP1;ratioP1;P1;durP2;ratioP2;P2;SDS_P1;SDS_P2;PMS_P1;PMS_P2;Temp;Humidity;BMP_temperature;BMP_pressure;BME280_temperature;BME280_humidity;BME280_pressure;Samples;Min_cycle;Max_cycle;Signal;HPM_P1;HPM_P2
2021/10/24 00:02:16;;;;;;;11.00;9.17;;;6.90;84.80;;;;;;2625776;30;20731;-85
2021/10/24 00:04:44;;;;;;;13.70;9.10;;;7.10;84.50;;;;;;2623964;30;20209;-84
2021/10/24 00:07:10;;;;;;;19.83;9.40;;;7.00;84.70;;;;;;2622453;38;20405;-84
2021/10/24 00:09:36;;;;;;;11.60;8.73;;;7.00;84.60;;;;;;2625013;38;20381;-87
2021/10/24 00:12:01;;;;;;;17.07;9.03;;;7.00;84.80;;;;;;2628714;30;20391;-85
2021/10/24 00:14:30;;;;;;;13.27;9.10;;;7.00;85.10;;;;;;2626062;30;20415;-86
2021/10/24 00:16:57;;;;;;;14.63;9.17;;;7.00;85.40;;;;;;2625077;30;20205;-86
2021/10/24 00:19:22;;;;;;;14.40;8.97;;;6.90;86.50;;;;;;2624531;38;20426;-85
2021/10/24 00:21:48;;;;;;;14.40;10.20;;;7.20;85.60;;;;;;2625010;30;20442;-85
2021/10/24 00:24:14;;;;;;;17.13;10.30;;;7.20;85.60;;;;;;2623062;38;20407;-83
2021/10/24 00:26:40;;;;;;;19.13;8.77;;;7.20;85.20;;;;;;2623181;30;20213;-85
2021/10/24 00:29:06;;;;;;;15.27;10.13;;;7.20;85.30;;;;;;2625513;38;20202;-86
2021/10/24 00:31:32;;;;;;;11.47;9.13;;;7.40;84.90;;;;;;2624022;38;20789;-85
2021/10/24 00:33:58;;;;;;;13.10;8.17;;;7.50;84.90;;;;;;2625110;30;20422;-85
2021/10/24 00:36:26;;;;;;;10.27;8.20;;;7.50;84.90;;;;;;2624643;30;20217;-85
2021/10/24 00:39:08;;;;;;;12.87;8.87;;;7.60;83.90;;;;;;2626460;30;20762;-86
2021/10/24 00:41:35;;;;;;;17.03;9.17;;;7.30;84.10;;;;;;2625286;38;20410;-87
2021/10/24 00:44:18;;;;;;;12.57;8.37;;;7.40;84.60;;;;;;2627786;30;20363;-86
2021/10/24 00:46:44;;;;;;;9.70;8.27;;;7.60;84.00;;;;;;2625028;38;20458;-83
2021/10/24 00:49:10;;;;;;;11.70;7.93;;;7.40;84.60;;;;;;2626398;30;20447;-84
2021/10/24 00:51:38;;;;;;;9.97;8.50;;;7.30;83.60;;;;;;2625938;38;21028;-86
2021/10/24 00:54:04;;;;;;;9.83;8.17;;;7.30;83.90;;;;;;2624277;38;20197;-83
2021/10/24 00:56:31;;;;;;;14.67;8.40;;;7.50;83.40;;;;;;2623143;30;20418;-85
2021/10/24 00:58:56;;;;;;;12.97;8.33;;;7.50;82.30;;;;;;2625713;30;20202;-84
2021/10/24 01:01:22;;;;;;;16.43;8.80;;;7.70;83.20;;;;;;2624323;30;20773;-80
2021/10/24 01:03:48;;;;;;;11.00;8.23;;;7.50;83.10;;;;;;2626088;30;20289;-79
2021/10/24 01:06:14;;;;;;;7.67;6.77;;;7.70;82.80;;;;;;2624795;30;20416;-79
2021/10/24 01:08:40;;;;;;;8.60;7.80;;;7.50;82.60;;;;;;2623506;38;20206;-79
2021/10/24 01:11:06;;;;;;;8.87;6.83;;;7.60;82.50;;;;;;2624249;38;20406;-79
2021/10/24 01:13:32;;;;;;;9.47;7.00;;;7.70;81.70;;;;;;2624390;38;20214;-79
2021/10/24 01:16:12;;;;;;;12.07;7.90;;;7.70;81.50;;;;;;2624353;38;20297;-78
2021/10/24 01:18:38;;;;;;;10.17;6.67;;;7.60;81.40;;;;;;2624315;38;20362;-77
2021/10/24 01:21:08;;;;;;;9.93;6.67;;;7.80;81.60;;;;;;2623912;30;20391;-79
2021/10/24 01:23:37;;;;;;;9.57;7.40;;;7.70;81.60;;;;;;2623015;30;21596;-79
2021/10/24 01:26:07;;;;;;;10.50;7.10;;;7.80;81.40;;;;;;2622763;31;20387;-80
2021/10/24 01:28:36;;;;;;;7.50;6.20;;;7.90;80.80;;;;;;2623295;38;20423;-79
2021/10/24 01:31:02;;;;;;;9.07;7.40;;;7.90;80.70;;;;;;2625845;38;20930;-79
2021/10/24 01:33:29;;;;;;;11.20;6.50;;;7.80;80.50;;;;;;2624215;38;20382;-80
2021/10/24 01:35:57;;;;;;;9.33;6.13;;;7.50;80.70;;;;;;2626051;30;20764;-79
2021/10/24 01:38:25;;;;;;;8.33;6.53;;;7.60;80.60;;;;;;2624086;30;20403;-82
2021/10/24 01:40:52;;;;;;;8.17;7.13;;;7.60;81.40;;;;;;2624540;30;20387;-79
2021/10/24 01:43:21;;;;;;;9.17;6.50;;;8.00;80.60;;;;;;2624849;30;20533;-79
2021/10/24 01:45:50;;;;;;;9.43;6.97;;;8.00;80.10;;;;;;2624011;38;20429;-79
2021/10/24 01:48:16;;;;;;;10.00;7.30;;;7.90;80.50;;;;;;2623140;38;20991;-79
2021/10/24 01:50:45;;;;;;;8.73;5.60;;;8.10;79.80;;;;;;2624993;30;20475;-79
2021/10/24 01:53:15;;;;;;;6.90;6.20;;;8.00;80.10;;;;;;2624032;38;20379;-79
2021/10/24 01:55:41;;;;;;;9.43;6.03;;;7.80;80.90;;;;;;2624680;30;20422;-81
2021/10/24 01:58:06;;;;;;;9.83;6.37;;;7.80;81.00;;;;;;2624709;30;20391;-81
2021/10/24 02:00:36;;;;;;;9.13;6.30;;;7.70;80.90;;;;;;2623812;38;20251;-79
2021/10/24 02:03:02;;;;;;;8.00;7.20;;;7.80;81.20;;;;;;2625925;30;20225;-80
2021/10/24 02:05:28;;;;;;;10.03;6.20;;;7.80;80.80;;;;;;2626076;30;20486;-78
2021/10/24 02:07:54;;;;;;;11.93;8.17;;;7.70;82.00;;;;;;2625756;30;20574;-79
2021/10/24 02:10:19;;;;;;;11.77;7.73;;;7.40;82.70;;;;;;2625432;30;20202;-79
2021/10/24 02:12:46;;;;;;;8.10;7.30;;;7.70;83.00;;;;;;2624670;38;20225;-79
2021/10/24 02:15:12;;;;;;;11.00;6.60;;;7.80;82.10;;;;;;2628208;30;20386;-78
2021/10/24 02:17:38;;;;;;;11.23;7.47;;;7.90;82.00;;;;;;2626321;30;20888;-80
2021/10/24 02:20:07;;;;;;;16.60;7.90;;;7.90;81.80;;;;;;2626503;30;21014;-79
2021/10/24 02:22:33;;;;;;;9.53;6.43;;;7.80;81.30;;;;;;2624975;38;20416;-80
2021/10/24 02:24:59;;;;;;;14.80;6.83;;;8.00;81.00;;;;;;2622296;30;20433;-80
2021/10/24 02:27:25;;;;;;;10.23;6.10;;;8.00;80.80;;;;;;2624153;30;20258;-79
2021/10/24 02:29:51;;;;;;;9.03;6.67;;;7.90;81.20;;;;;;2624329;30;20201;-79
2021/10/24 02:32:17;;;;;;;13.77;6.70;;;7.60;82.60;;;;;;2624268;38;20374;-77
2021/10/24 02:34:43;;;;;;;9.80;6.67;;;7.80;82.40;;;;;;2623432;30;20213;-79
2021/10/24 02:37:09;;;;;;;13.53;8.47;;;7.80;82.00;;;;;;2623179;38;20533;-79
2021/10/24 02:39:38;;;;;;;8.40;6.53;;;7.60;82.20;;;;;;2623419;30;21027;-79
2021/10/24 02:42:05;;;;;;;14.70;6.90;;;7.80;82.10;;;;;;2623647;30;20378;-79
2021/10/24 02:44:32;;;;;;;15.00;8.77;;;7.80;81.60;;;;;;2624801;30;20389;-79
2021/10/24 02:46:57;;;;;;;9.93;6.60;;;7.70;81.30;;;;;;2623606;30;20443;-79
2021/10/24 02:49:24;;;;;;;12.60;6.77;;;7.80;81.60;;;;;;2625262;30;20849;-78
2021/10/24 02:51:51;;;;;;;9.23;7.63;;;7.90;81.50;;;;;;2625080;30;20552;-79
2021/10/24 02:54:18;;;;;;;8.10;7.10;;;8.10;80.80;;;;;;2624973;30;20410;-78
2021/10/24 02:56:45;;;;;;;11.60;6.90;;;8.10;80.30;;;;;;2624483;30;20386;-79
2021/10/24 02:59:11;;;;;;;9.73;6.37;;;8.00;80.10;;;;;;2623263;30;20386;-79
2021/10/24 03:01:37;;;;;;;10.07;6.80;;;7.70;81.50;;;;;;2623749;30;20418;-78
2021/10/24 03:04:03;;;;;;;9.83;6.60;;;7.80;81.60;;;;;;2625685;30;20938;-80
2021/10/24 03:06:31;;;;;;;8.07;7.17;;;7.50;82.60;;;;;;2623581;30;20892;-79
2021/10/24 03:08:58;;;;;;;9.30;6.87;;;7.50;83.00;;;;;;2623735;38;20395;-80
2021/10/24 03:11:23;;;;;;;6.57;5.87;;;7.60;83.10;;;;;;2622388;30;20370;-80
2021/10/24 03:13:49;;;;;;;6.77;6.10;;;7.30;83.70;;;;;;2623820;38;20423;-79
2021/10/24 03:16:15;;;;;;;9.63;5.97;;;7.20;83.60;;;;;;2622733;30;20213;-79
2021/10/24 03:18:41;;;;;;;9.60;6.77;;;7.70;82.90;;;;;;2621753;38;20434;-79
2021/10/24 03:21:07;;;;;;;12.43;5.97;;;7.70;82.40;;;;;;2623733;30;20395;-80
2021/10/24 03:23:33;;;;;;;8.07;5.90;;;7.60;82.20;;;;;;2622417;38;20633;-79
2021/10/24 03:25:59;;;;;;;9.47;7.13;;;7.60;82.40;;;;;;2619575;30;20299;-80
2021/10/24 03:28:25;;;;;;;7.50;6.67;;;7.70;82.30;;;;;;2622205;38;20399;-79
2021/10/24 03:30:51;;;;;;;8.27;6.60;;;7.80;81.70;;;;;;2622754;38;20394;-79
2021/10/24 03:33:17;;;;;;;9.33;6.30;;;7.90;81.80;;;;;;2623167;30;20482;-79
2021/10/24 03:35:43;;;;;;;12.60;7.30;;;7.90;81.60;;;;;;2622540;38;21269;-79
2021/10/24 03:38:09;;;;;;;9.43;7.63;;;7.50;82.80;;;;;;2623550;30;20402;-80
2021/10/24 03:40:37;;;;;;;11.23;6.30;;;7.50;83.20;;;;;;2622695;30;21125;-81
2021/10/24 03:43:03;;;;;;;9.33;7.93;;;7.60;82.90;;;;;;2621423;38;20420;-78
2021/10/24 03:45:29;;;;;;;9.60;7.50;;;7.50;82.80;;;;;;2622452;30;20534;-80
2021/10/24 03:47:55;;;;;;;11.03;6.87;;;7.70;82.70;;;;;;2621896;30;20482;-79
2021/10/24 03:50:21;;;;;;;10.40;7.17;;;7.60;82.40;;;;;;2622919;30;20208;-80
2021/10/24 03:52:47;;;;;;;12.30;7.23;;;7.60;82.70;;;;;;2623160;38;20926;-80
2021/10/24 03:55:14;;;;;;;14.17;7.40;;;7.40;83.30;;;;;;2622484;38;20194;-78
2021/10/24 03:57:40;;;;;;;10.77;7.53;;;7.50;83.80;;;;;;2623128;30;20394;-80
2021/10/24 04:00:11;;;;;;;9.43;7.70;;;7.30;83.70;;;;;;2622403;30;20435;-79
2021/10/24 04:02:58;;;;;;;12.63;7.67;;;7.50;83.80;;;;;;2623323;30;20436;-79
2021/10/24 04:05:25;;;;;;;10.37;6.80;;;7.30;83.60;;;;;;2623059;38;20406;-79
2021/10/24 04:07:52;;;;;;;12.50;7.33;;;7.30;83.70;;;;;;2623874;38;20399;-80
2021/10/24 04:10:20;;;;;;;13.93;8.00;;;7.10;84.40;;;;;;2622308;38;20494;-79
2021/10/24 04:12:46;;;;;;;21.43;8.33;;;7.30;83.70;;;;;;2623168;30;20405;-79
2021/10/24 04:15:13;;;;;;;9.47;7.50;;;7.50;83.80;;;;;;2623170;30;20510;-78
2021/10/24 04:17:39;;;;;;;14.67;6.90;;;7.30;84.10;;;;;;2623841;30;20418;-79
2021/10/24 04:20:10;;;;;;;16.07;7.53;;;7.30;84.20;;;;;;2624093;38;20477;-79
2021/10/24 04:22:37;;;;;;;11.30;7.93;;;7.40;83.80;;;;;;2623762;30;20397;-78
2021/10/24 04:25:05;;;;;;;13.90;8.17;;;7.50;83.20;;;;;;2623175;30;20391;-79
2021/10/24 04:27:32;;;;;;;9.60;7.03;;;7.60;83.40;;;;;;2622316;30;20395;-78
2021/10/24 04:29:58;;;;;;;13.70;7.50;;;7.50;82.90;;;;;;2623470;30;21197;-79
2021/10/24 04:32:24;;;;;;;15.00;8.00;;;7.80;82.70;;;;;;2622539;30;20908;-79
2021/10/24 04:34:50;;;;;;;14.50;7.50;;;7.50;82.40;;;;;;2621423;38;20378;-78
2021/10/24 04:37:16;;;;;;;8.10;7.00;;;7.50;83.10;;;;;;2622576;38;20221;-80
2021/10/24 04:39:42;;;;;;;13.57;7.67;;;7.60;83.00;;;;;;2622480;38;20382;-79
2021/10/24 04:42:08;;;;;;;9.43;6.30;;;7.50;83.20;;;;;;2622574;38;20398;-79
2021/10/24 04:44:34;;;;;;;10.27;7.53;;;7.50;83.90;;;;;;2623393;30;20446;-79
2021/10/24 04:47:00;;;;;;;10.77;7.97;;;7.60;83.00;;;;;;2622437;30;20202;-79
2021/10/24 04:49:25;;;;;;;10.77;7.40;;;7.30;83.30;;;;;;2622796;38;20222;-79
2021/10/24 04:51:51;;;;;;;9.57;7.53;;;7.50;83.50;;;;;;2623279;30;20627;-81
2021/10/24 04:54:17;;;;;;;12.60;7.77;;;7.50;83.30;;;;;;2622938;38;20201;-80
2021/10/24 04:56:43;;;;;;;18.83;8.03;;;7.40;83.80;;;;;;2622237;30;20206;-79
2021/10/24 04:59:09;;;;;;;12.40;7.10;;;7.60;83.50;;;;;;2622509;30;21014;-80
2021/10/24 05:01:34;;;;;;;8.17;7.30;;;7.60;82.90;;;;;;2623401;30;20202;-79
2021/10/24 05:04:00;;;;;;;8.47;6.23;;;7.60;82.40;;;;;;2625007;30;20749;-79
2021/10/24 05:06:26;;;;;;;11.87;7.03;;;7.40;83.70;;;;;;2621230;30;20980;-80
2021/10/24 05:08:52;;;;;;;13.20;8.43;;;7.50;83.30;;;;;;2623928;30;20670;-80
2021/10/24 05:11:17;;;;;;;14.40;7.60;;;7.50;83.20;;;;;;2624229;30;21281;-80
2021/10/24 05:13:44;;;;;;;8.70;6.67;;;7.40;83.20;;;;;;2622870;30;20707;-78
2021/10/24 05:16:09;;;;;;;9.53;7.13;;;7.60;82.50;;;;;;2623118;38;20253;-80
2021/10/24 05:18:35;;;;;;;18.40;7.40;;;7.40;83.70;;;;;;2623772;38;20496;-79
2021/10/24 05:21:01;;;;;;;8.27;7.20;;;7.50;82.60;;;;;;2623003;38;20873;-79
2021/10/24 05:23:26;;;;;;;10.50;6.70;;;7.30;82.10;;;;;;2623646;30;20710;-81
2021/10/24 05:25:52;;;;;;;9.23;6.83;;;7.00;83.30;;;;;;2620897;38;20209;-80
2021/10/24 05:28:18;;;;;;;11.13;8.93;;;6.90;83.30;;;;;;2623800;30;20198;-79
2021/10/24 05:30:46;;;;;;;7.97;6.73;;;7.20;83.00;;;;;;2621895;30;20262;-80
2021/10/24 05:33:12;;;;;;;11.70;7.60;;;7.20;82.00;;;;;;2622622;38;20462;-80
2021/10/24 05:35:38;;;;;;;11.73;7.13;;;6.90;82.50;;;;;;2621475;38;20224;-80
2021/10/24 05:38:03;;;;;;;13.87;6.53;;;7.00;82.40;;;;;;2621111;30;20586;-80
2021/10/24 05:40:31;;;;;;;10.17;6.90;;;7.00;82.20;;;;;;2623270;30;20213;-80
2021/10/24 05:42:57;;;;;;;12.87;7.37;;;6.80;82.60;;;;;;2623786;30;20901;-80
2021/10/24 05:45:23;;;;;;;11.33;7.07;;;6.60;83.00;;;;;;2624445;30;20545;-79
2021/10/24 05:47:49;;;;;;;7.83;7.03;;;6.50;82.90;;;;;;2622912;30;21014;-79
2021/10/24 05:50:15;;;;;;;9.53;6.60;;;6.60;82.90;;;;;;2623580;38;21533;-81
2021/10/24 05:52:41;;;;;;;10.97;7.03;;;6.50;82.90;;;;;;2623743;30;20257;-80
2021/10/24 05:55:07;;;;;;;7.70;6.40;;;6.40;82.80;;;;;;2624378;30;20818;-79
2021/10/24 05:57:33;;;;;;;9.47;6.27;;;6.50;82.90;;;;;;2622945;30;20260;-81
2021/10/24 05:59:58;;;;;;;8.33;6.27;;;6.50;82.90;;;;;;2622538;30;20406;-79
2021/10/24 06:02:24;;;;;;;9.23;6.20;;;6.30;82.70;;;;;;2624727;30;21119;-80
2021/10/24 06:04:50;;;;;;;10.43;7.10;;;6.40;82.80;;;;;;2624254;30;20225;-79
2021/10/24 06:07:16;;;;;;;11.10;6.30;;;6.20;84.00;;;;;;2623951;30;20722;-79
2021/10/24 06:12:16;;;;;;;10.27;6.90;;;6.20;83.60;;;;;;2622648;38;20399;-80
2021/10/24 06:14:43;;;;;;;10.63;6.97;;;6.20;83.50;;;;;;2623754;30;20405;-80
2021/10/24 06:17:09;;;;;;;8.23;6.83;;;6.20;83.70;;;;;;2621833;30;20390;-80
2021/10/24 06:19:36;;;;;;;9.03;7.00;;;6.20;83.60;;;;;;2622115;30;20443;-80
2021/10/24 06:22:03;;;;;;;12.13;7.30;;;6.40;83.60;;;;;;2618167;30;20505;-76
2021/10/24 06:24:29;;;;;;;10.57;7.77;;;6.60;83.90;;;;;;2617912;30;20471;-76
2021/10/24 06:26:55;;;;;;;9.20;7.37;;;6.70;83.90;;;;;;2617011;38;21231;-78
2021/10/24 06:29:21;;;;;;;12.23;8.80;;;6.60;84.80;;;;;;2619503;30;20405;-76
2021/10/24 06:31:46;;;;;;;11.70;7.90;;;6.60;85.30;;;;;;2616999;30;20782;-77
2021/10/24 06:34:12;;;;;;;12.63;7.73;;;6.70;85.40;;;;;;2617311;30;22518;-77
2021/10/24 06:36:38;;;;;;;10.80;6.80;;;6.80;84.70;;;;;;2616862;31;20221;-77
2021/10/24 06:39:03;;;;;;;14.33;8.23;;;6.90;85.00;;;;;;2618777;30;20206;-77
2021/10/24 06:41:29;;;;;;;10.13;7.93;;;7.00;85.20;;;;;;2618116;30;20215;-76
2021/10/24 06:43:55;;;;;;;10.00;6.73;;;7.20;85.00;;;;;;2618720;30;20757;-77
2021/10/24 06:46:21;;;;;;;10.20;7.37;;;7.20;84.50;;;;;;2620701;30;20374;-77
2021/10/24 06:48:46;;;;;;;17.00;8.93;;;7.40;84.20;;;;;;2616471;30;20314;-78
2021/10/24 06:51:13;;;;;;;11.77;7.77;;;7.50;83.80;;;;;;2615503;38;20680;-77
2021/10/24 06:53:39;;;;;;;10.73;7.70;;;7.60;84.00;;;;;;2616201;38;20206;-77
2021/10/24 06:56:04;;;;;;;8.10;7.30;;;7.60;84.00;;;;;;2617662;30;20398;-77
2021/10/24 06:58:30;;;;;;;12.43;7.60;;;7.50;83.80;;;;;;2618134;30;20297;-77
2021/10/24 07:00:59;;;;;;;16.13;7.20;;;7.50;83.90;;;;;;2619212;38;20213;-77
2021/10/24 07:03:25;;;;;;;14.00;8.03;;;7.70;83.70;;;;;;2618733;30;20194;-79
2021/10/24 07:05:50;;;;;;;10.00;7.87;;;7.80;82.80;;;;;;2619635;30;20373;-77
2021/10/24 07:08:16;;;;;;;13.63;7.97;;;7.90;84.20;;;;;;2616536;38;21428;-77
2021/10/24 07:10:42;;;;;;;7.87;6.57;;;9.10;85.40;;;;;;2696823;30;21037;-77
2021/10/24 07:13:08;;;;;;;12.97;7.17;;;11.40;75.80;;;;;;2619085;30;20230;-77
2021/10/24 07:15:34;;;;;;;10.87;7.20;;;13.70;68.50;;;;;;2618393;30;20210;-77
2021/10/24 07:17:59;;;;;;;7.57;5.57;;;14.80;63.80;;;;;;2617982;30;20502;-77
2021/10/24 07:20:27;;;;;;;6.53;5.53;;;16.50;61.60;;;;;;2618398;30;20225;-77
2021/10/24 07:22:52;;;;;;;12.63;7.43;;;18.20;57.30;;;;;;2619612;30;20202;-78
2021/10/24 07:25:18;;;;;;;13.60;5.70;;;19.10;55.70;;;;;;2619259;30;20447;-77
2021/10/24 07:27:44;;;;;;;6.97;5.50;;;19.70;50.70;;;;;;2616023;38;20224;-78
2021/10/24 07:30:11;;;;;;;6.67;4.87;;;19.90;48.20;;;;;;2619426;38;20197;-78
2021/10/24 07:32:37;;;;;;;8.30;5.20;;;20.10;45.00;;;;;;2622584;30;20492;-77
2021/10/24 07:35:04;;;;;;;7.50;4.80;;;19.50;45.40;;;;;;2622801;30;20884;-78
2021/10/24 07:37:30;;;;;;;6.53;5.30;;;19.70;46.20;;;;;;2623369;30;20257;-78
2021/10/24 07:39:56;;;;;;;6.93;4.10;;;19.90;45.20;;;;;;2622827;30;20380;-77
2021/10/24 07:42:22;;;;;;;5.20;4.60;;;20.30;44.60;;;;;;2623239;30;20953;-78
2021/10/24 07:44:47;;;;;;;9.17;5.37;;;20.40;43.10;;;;;;2622112;30;20200;-77
2021/10/24 07:47:13;;;;;;;6.00;4.30;;;20.30;43.50;;;;;;2622032;30;20207;-77
2021/10/24 07:49:39;;;;;;;8.10;5.30;;;21.40;42.60;;;;;;2622473;30;20204;-77
2021/10/24 07:52:05;;;;;;;5.63;5.03;;;21.60;40.50;;;;;;2621796;30;20386;-77
2021/10/24 07:54:31;;;;;;;6.83;4.50;;;20.80;39.80;;;;;;2622667;30;21098;-78
2021/10/24 07:56:56;;;;;;;5.30;4.77;;;21.70;40.40;;;;;;2622555;30;20311;-77
2021/10/24 07:59:22;;;;;;;8.00;5.07;;;21.60;39.10;;;;;;2622320;30;20212;-76
2021/10/24 08:01:48;;;;;;;6.57;4.97;;;20.80;39.50;;;;;;2622808;30;20370;-78
2021/10/24 08:04:14;;;;;;;6.30;4.80;;;21.00;40.00;;;;;;2622512;30;20200;-77
2021/10/24 08:06:40;;;;;;;6.07;5.17;;;21.20;40.00;;;;;;2621490;30;21001;-77
2021/10/24 08:09:09;;;;;;;4.13;3.73;;;21.80;39.50;;;;;;2622395;30;20226;-79
2021/10/24 08:11:35;;;;;;;10.40;4.80;;;21.90;38.40;;;;;;2622356;38;20397;-78
2021/10/24 08:14:03;;;;;;;9.73;5.17;;;22.40;37.10;;;;;;2622703;30;20756;-78
2021/10/24 08:16:28;;;;;;;7.40;4.40;;;21.20;38.00;;;;;;2622455;30;20236;-77
2021/10/24 08:18:54;;;;;;;7.03;4.07;;;21.30;38.30;;;;;;2624232;30;20479;-78
2021/10/24 08:21:20;;;;;;;7.87;4.10;;;21.10;38.00;;;;;;2623388;30;20956;-78
2021/10/24 08:23:47;;;;;;;7.53;4.50;;;21.70;38.50;;;;;;2623444;30;20186;-79
2021/10/24 08:26:14;;;;;;;4.60;4.20;;;22.10;37.60;;;;;;2622720;30;20996;-77
2021/10/24 08:28:40;;;;;;;4.30;3.53;;;21.90;37.50;;;;;;2622682;38;20390;-77
2021/10/24 08:31:06;;;;;;;5.90;4.50;;;23.20;37.00;;;;;;2621120;30;20387;-79
2021/10/24 08:33:31;;;;;;;7.43;3.87;;;24.40;34.90;;;;;;2623091;30;20194;-77
2021/10/24 08:35:59;;;;;;;4.67;3.80;;;24.00;34.30;;;;;;2622569;30;20217;-77
2021/10/24 08:38:26;;;;;;;4.60;3.13;;;23.20;34.90;;;;;;2624287;30;20212;-76
2021/10/24 08:40:53;;;;;;;7.50;3.27;;;22.00;36.80;;;;;;2622439;30;20968;-76
2021/10/24 08:43:19;;;;;;;3.00;2.77;;;21.30;36.80;;;;;;2622333;30;20461;-76
2021/10/24 08:45:48;;;;;;;5.57;3.30;;;21.30;37.20;;;;;;2621531;38;20395;-77
2021/10/24 08:48:18;;;;;;;8.27;3.37;;;20.10;38.20;;;;;;2622393;30;20475;-78
2021/10/24 08:50:45;;;;;;;4.20;3.53;;;21.70;37.40;;;;;;2621751;30;20964;-77
2021/10/24 08:53:17;;;;;;;5.80;3.40;;;22.40;36.10;;;;;;2621397;30;20434;-77
2021/10/24 08:55:43;;;;;;;4.70;3.30;;;23.10;35.90;;;;;;2622131;30;20413;-77
2021/10/24 08:58:09;;;;;;;7.03;3.67;;;22.00;35.90;;;;;;2622908;38;20414;-78
2021/10/24 09:00:35;;;;;;;6.57;4.70;;;21.50;36.70;;;;;;2621836;38;20728;-76
2021/10/24 09:03:07;;;;;;;6.37;3.60;;;22.00;36.50;;;;;;2624521;30;20394;-78
2021/10/24 09:05:34;;;;;;;5.53;4.03;;;22.00;36.00;;;;;;2625202;30;20386;-77
2021/10/24 09:08:00;;;;;;;3.97;2.50;;;23.00;35.80;;;;;;2626596;30;21007;-78
2021/10/24 09:10:57;;;;;;;5.83;3.03;;;23.20;35.80;;;;;;2625662;30;20478;-79
2021/10/24 09:13:25;;;;;;;5.07;2.90;;;24.40;35.10;;;;;;2625382;30;20371;-77
2021/10/24 09:16:02;;;;;;;5.00;2.83;;;22.80;34.60;;;;;;2626969;30;20789;-78
2021/10/24 09:18:37;;;;;;;3.10;2.80;;;22.10;36.20;;;;;;2625913;30;20371;-76
2021/10/24 09:21:14;;;;;;;6.60;3.30;;;23.20;34.90;;;;;;2629670;30;20361;-76
2021/10/24 09:24:19;;;;;;;4.33;2.30;;;23.40;34.30;;;;;;2625886;30;20756;-76
2021/10/24 09:26:45;;;;;;;3.10;2.30;;;23.30;34.00;;;;;;2624970;30;20388;-76
2021/10/24 09:29:14;;;;;;;5.93;3.03;;;22.80;33.90;;;;;;2624799;30;20734;-76
2021/10/24 09:31:42;;;;;;;6.47;3.07;;;22.60;35.10;;;;;;2624026;30;20219;-76
2021/10/24 09:34:21;;;;;;;4.80;3.07;;;23.10;34.70;;;;;;2623594;30;20372;-76
2021/10/24 09:36:54;;;;;;;5.07;2.93;;;22.80;35.40;;;;;;2621616;30;20411;-77
2021/10/24 09:39:42;;;;;;;5.00;2.00;;;23.30;34.90;;;;;;2621472;30;20428;-76
2021/10/24 09:42:18;;;;;;;4.57;2.90;;;23.30;34.10;;;;;;2623959;30;20396;-76
2021/10/24 09:45:05;;;;;;;3.90;2.50;;;23.70;33.30;;;;;;2622451;30;20386;-78
2021/10/24 09:47:35;;;;;;;3.20;2.20;;;25.00;33.00;;;;;;2621537;38;22191;-77
2021/10/24 09:50:06;;;;;;;3.57;2.80;;;24.50;32.30;;;;;;2623042;30;21038;-78
2021/10/24 09:52:34;;;;;;;3.07;2.47;;;24.30;33.30;;;;;;2623993;30;20402;-76
2021/10/24 09:55:00;;;;;;;3.90;2.63;;;23.40;33.60;;;;;;2622823;30;20534;-77
2021/10/24 09:57:28;;;;;;;3.57;2.70;;;22.50;33.80;;;;;;2622955;30;20496;-79
2021/10/24 09:59:54;;;;;;;3.40;3.10;;;21.60;35.90;;;;;;2622448;30;20380;-77
2021/10/24 10:02:21;;;;;;;2.90;2.70;;;21.30;36.10;;;;;;2622741;30;20385;-77
2021/10/24 10:04:47;;;;;;;2.53;2.33;;;20.20;35.60;;;;;;2622000;38;20402;-76
2021/10/24 10:07:14;;;;;;;3.87;2.90;;;21.20;36.50;;;;;;2622035;30;20372;-77
2021/10/24 10:09:44;;;;;;;5.57;3.00;;;21.50;35.70;;;;;;2620693;30;20482;-78
2021/10/24 10:12:20;;;;;;;2.50;2.20;;;21.80;35.50;;;;;;2622361;30;20393;-78
2021/10/24 10:14:47;;;;;;;5.60;2.40;;;22.40;34.50;;;;;;2622927;30;21001;-76
2021/10/24 10:17:22;;;;;;;7.23;2.47;;;21.30;35.30;;;;;;2622119;30;20756;-78
2021/10/24 10:19:48;;;;;;;3.70;2.60;;;22.40;35.10;;;;;;2621664;30;20807;-76
2021/10/24 10:22:30;;;;;;;7.10;3.10;;;21.50;35.50;;;;;;2622594;30;20419;-79
2021/10/24 10:25:00;;;;;;;4.60;2.70;;;21.60;35.70;;;;;;2622590;38;20201;-79
2021/10/24 10:27:34;;;;;;;5.40;2.33;;;22.80;34.60;;;;;;2621203;30;20392;-76
2021/10/24 10:30:33;;;;;;;3.30;3.00;;;23.40;34.30;;;;;;2623040;30;20408;-79
2021/10/24 10:33:01;;;;;;;9.47;4.23;;;23.40;34.30;;;;;;2624173;30;21173;-80
2021/10/24 10:35:27;;;;;;;3.23;2.43;;;23.90;33.00;;;;;;2623375;30;21165;-77
2021/10/24 10:37:57;;;;;;;7.03;2.80;;;23.90;32.60;;;;;;2620980;30;20397;-78
2021/10/24 10:40:24;;;;;;;5.27;3.07;;;23.20;34.90;;;;;;2618372;30;20910;-78
2021/10/24 10:42:55;;;;;;;3.83;2.70;;;24.10;33.20;;;;;;2620594;38;20386;-80
2021/10/24 10:45:36;;;;;;;3.93;2.37;;;24.60;33.10;;;;;;2618433;30;20451;-77
2021/10/24 10:48:08;;;;;;;3.10;2.53;;;25.20;32.70;;;;;;2618098;30;20433;-78
2021/10/24 10:50:45;;;;;;;9.70;2.97;;;24.20;32.10;;;;;;2618402;30;20470;-79
2021/10/24 10:53:17;;;;;;;5.43;2.70;;;23.50;32.60;;;;;;2618824;30;20438;-78
2021/10/24 10:56:01;;;;;;;3.97;2.70;;;23.90;33.20;;;;;;2620196;30;20377;-78
2021/10/24 10:58:27;;;;;;;3.90;3.30;;;23.60;33.90;;;;;;2619985;30;20422;-79
2021/10/24 11:00:56;;;;;;;6.03;3.40;;;23.80;33.70;;;;;;2618606;30;20496;-80
2021/10/24 11:03:47;;;;;;;5.07;2.97;;;22.80;34.60;;;;;;2620574;30;20235;-77
2021/10/24 11:06:31;;;;;;;3.37;2.40;;;23.00;34.10;;;;;;2622493;30;20381;-78
2021/10/24 11:08:58;;;;;;;3.83;2.50;;;22.00;34.20;;;;;;2625521;30;20923;-80
2021/10/24 11:11:45;;;;;;;2.97;2.63;;;23.40;33.90;;;;;;2623660;38;20419;-78
2021/10/24 11:14:14;;;;;;;4.80;2.93;;;23.00;33.80;;;;;;2621559;30;20379;-78
2021/10/24 11:16:50;;;;;;;3.63;2.57;;;23.00;32.90;;;;;;2623865;30;20483;-79
2021/10/24 11:19:28;;;;;;;3.93;2.23;;;22.70;33.50;;;;;;2621865;30;20873;-77
2021/10/24 11:21:56;;;;;;;2.90;2.30;;;22.00;35.20;;;;;;2620539;38;20414;-79
2021/10/24 11:24:27;;;;;;;4.10;2.10;;;23.50;33.60;;;;;;2620230;30;21597;-79
2021/10/24 11:26:59;;;;;;;2.60;1.93;;;23.90;34.30;;;;;;2621688;38;20412;-79
2021/10/24 11:29:26;;;;;;;2.73;2.53;;;24.60;33.00;;;;;;2621360;30;20418;-76
2021/10/24 11:32:35;;;;;;;3.80;2.50;;;25.00;32.10;;;;;;2639092;30;20436;-78
2021/10/24 11:35:13;;;;;;;3.77;2.60;;;23.80;32.40;;;;;;2621248;38;20413;-78
2021/10/24 11:37:45;;;;;;;4.60;2.93;;;23.70;33.00;;;;;;2621864;30;21106;-78
2021/10/24 11:40:17;;;;;;;5.40;1.90;;;23.00;33.60;;;;;;2620763;30;20391;-77
2021/10/24 11:43:11;;;;;;;5.60;2.30;;;23.40;33.00;;;;;;2621960;38;21484;-77
2021/10/24 11:45:54;;;;;;;2.07;1.90;;;22.90;34.30;;;;;;2620858;30;20413;-78
2021/10/24 11:48:21;;;;;;;3.37;2.40;;;23.90;32.00;;;;;;2617851;31;20422;-76
2021/10/24 11:50:48;;;;;;;2.37;2.10;;;23.80;32.90;;;;;;2622241;30;20382;-77
2021/10/24 11:53:20;;;;;;;3.83;2.40;;;24.20;32.70;;;;;;2622368;30;20375;-76
2021/10/24 11:55:48;;;;;;;3.03;2.27;;;22.90;33.00;;;;;;2620653;38;20426;-76
2021/10/24 12:03:06;;;;;;;6.17;2.30;;;21.80;33.20;;;;;;2621216;38;20225;-79
2021/10/24 12:05:36;;;;;;;2.27;2.07;;;22.70;34.30;;;;;;2621500;30;20230;-78
2021/10/24 12:08:03;;;;;;;3.10;2.00;;;23.20;33.50;;;;;;2621857;30;20914;-79
2021/10/24 12:10:48;;;;;;;2.43;2.00;;;24.00;33.10;;;;;;2619982;30;21038;-80
2021/10/24 12:13:35;;;;;;;2.13;1.93;;;25.00;31.00;;;;;;2620456;30;20397;-80
2021/10/24 12:16:05;;;;;;;3.27;1.93;;;24.10;32.30;;;;;;2621060;30;20922;-77
2021/10/24 12:18:35;;;;;;;5.20;2.80;;;23.90;31.20;;;;;;2620146;30;20442;-78
2021/10/24 12:21:03;;;;;;;2.30;2.10;;;23.30;33.20;;;;;;2618641;30;22991;-77
2021/10/24 12:23:37;;;;;;;3.73;2.10;;;23.80;32.30;;;;;;2621235;30;21238;-79
2021/10/24 12:26:07;;;;;;;2.20;2.00;;;24.20;31.90;;;;;;2619520;30;20484;-79
2021/10/24 12:28:40;;;;;;;2.40;2.00;;;24.10;33.30;;;;;;2619911;30;20446;-79
2021/10/24 12:31:06;;;;;;;3.73;2.03;;;24.90;31.90;;;;;;2620685;30;20406;-79
2021/10/24 12:33:37;;;;;;;5.00;2.20;;;25.90;30.60;;;;;;2619224;30;20447;-77
2021/10/24 12:36:08;;;;;;;2.47;1.80;;;24.50;31.00;;;;;;2619192;38;20216;-79
2021/10/24 12:38:55;;;;;;;1.77;1.67;;;25.30;31.30;;;;;;2621267;30;20403;-78
2021/10/24 12:41:44;;;;;;;4.43;2.30;;;24.50;32.40;;;;;;2621954;30;20448;-78
2021/10/24 12:44:15;;;;;;;2.30;2.07;;;24.80;31.90;;;;;;2623245;30;20391;-79
2021/10/24 12:46:42;;;;;;;3.50;2.03;;;24.60;31.50;;;;;;2622771;30;20418;-79
2021/10/24 12:49:13;;;;;;;3.67;2.47;;;24.20;32.50;;;;;;2620822;30;21070;-78
2021/10/24 12:51:40;;;;;;;2.27;1.80;;;25.10;32.00;;;;;;2621626;30;20959;-78
2021/10/24 12:54:11;;;;;;;2.23;1.93;;;25.30;31.00;;;;;;2621724;30;20391;-79
2021/10/24 12:56:40;;;;;;;2.60;1.80;;;26.40;30.80;;;;;;2621746;30;20454;-78
2021/10/24 12:59:07;;;;;;;4.47;2.27;;;26.70;31.30;;;;;;2623911;30;20939;-79
2021/10/24 13:01:35;;;;;;;4.80;2.03;;;26.10;30.50;;;;;;2622615;30;20413;-78
2021/10/24 13:04:03;;;;;;;3.10;2.57;;;25.50;30.30;;;;;;2621231;30;20421;-79